Time;durP1;ratioP1;P1;durP2;ratioP2;P2;SDS_P1;SDS_P2;PMS_P1;PMS_P2;Temp;Humidity;BMP_temperature;BMP_pressure;BME280_temperature;BME280_humidity;BME280_pressure;Samples;Min_cycle;Max_cycle;Signal;HPM_P1;HPM_P2
2022/04/28 05:54:16;;;;;;;27.98;16.40;;;12.90;69.70;;;;;;5064477;28;20443;-67
2022/04/28 05:56:42;;;;;;;26.48;17.60;;;13.00;70.80;;;;;;5042022;28;20150;-67
2022/04/28 05:59:10;;;;;;;24.60;16.40;;;14.60;99.90;;;;;;5040227;28;20078;-68
2022/04/28 06:01:37;;;;;;;27.73;17.63;;;13.40;70.20;;;;;;5028699;28;20038;-68
2022/04/28 06:04:04;;;;;;;25.48;17.10;;;13.60;69.60;;;;;;5030133;28;20496;-68
2022/04/28 06:06:30;;;;;;;26.02;17.45;;;13.70;68.90;;;;;;5045327;28;20099;-67
2022/04/28 06:08:56;;;;;;;26.98;17.23;;;13.90;68.40;;;;;;5031167;28;20034;-68
2022/04/28 06:11:21;;;;;;;29.40;18.10;;;14.00;67.80;;;;;;5041146;28;20036;-67
2022/04/28 06:13:47;;;;;;;37.97;18.27;;;14.00;67.40;;;;;;5036797;28;20055;-67
2022/04/28 06:16:13;;;;;;;31.38;17.20;;;14.00;67.10;;;;;;5036494;28;20036;-67
2022/04/28 06:18:39;;;;;;;28.35;18.13;;;14.10;66.90;;;;;;5038828;28;20052;-67
2022/04/28 06:21:05;;;;;;;29.02;17.60;;;14.20;66.90;;;;;;5030435;28;20119;-68
2022/04/28 06:23:31;;;;;;;26.42;16.10;;;14.20;66.60;;;;;;5035053;28;20117;-68
2022/04/28 06:25:56;;;;;;;27.45;18.60;;;14.20;66.40;;;;;;5038299;28;20018;-67
2022/04/28 06:28:22;;;;;;;25.23;16.50;;;14.50;73.60;;;;;;5031239;28;20037;-67
2022/04/28 06:30:48;;;;;;;29.73;17.98;;;14.20;65.80;;;;;;5032152;28;20080;-68
2022/04/28 06:33:13;;;;;;;26.48;17.90;;;14.30;65.80;;;;;;5028224;28;20496;-67
2022/04/28 06:35:39;;;;;;;26.40;17.00;;;14.30;65.60;;;;;;5044208;28;20020;-68
2022/04/28 06:38:05;;;;;;;25.80;16.60;;;14.30;65.70;;;;;;5039746;28;20495;-68
2022/04/28 06:40:31;;;;;;;25.65;16.42;;;14.30;65.60;;;;;;5032765;28;20047;-67
2022/04/28 06:42:57;;;;;;;24.80;16.52;;;14.30;89.00;;;;;;5043933;28;20487;-67
2022/04/28 06:45:24;;;;;;;23.27;15.90;;;14.20;65.60;;;;;;5045205;28;20151;-67
2022/04/28 06:47:50;;;;;;;27.38;15.45;;;;;;;;;;5030597;28;20037;-68
2022/04/28 06:50:16;;;;;;;24.95;15.45;;;14.20;90.80;;;;;;5040504;28;20431;-68
2022/04/28 06:52:42;;;;;;;26.52;16.95;;;14.30;91.70;;;;;;5048518;28;20045;-68
2022/04/28 06:55:10;;;;;;;24.48;15.80;;;14.20;64.10;;;;;;5081323;28;20519;-68
2022/04/28 06:57:37;;;;;;;24.73;15.55;;;14.30;64.30;;;;;;5054376;28;20874;-68
2022/04/28 07:00:08;;;;;;;25.20;15.50;;;14.30;64.00;;;;;;5040276;28;20033;-68
2022/04/28 07:02:34;;;;;;;25.38;15.35;;;14.40;64.40;;;;;;5043850;28;20021;-68
2022/04/28 07:05:00;;;;;;;24.38;15.45;;;;;;;;;;5029097;28;20124;-66
2022/04/28 07:07:27;;;;;;;24.95;15.77;;;;;;;;;;5016756;28;20030;-67
2022/04/28 07:09:53;;;;;;;26.48;15.90;;;14.30;64.10;;;;;;5024426;28;20068;-68
2022/04/28 07:12:19;;;;;;;23.90;15.98;;;;;;;;;;5030326;28;20126;-68
2022/04/28 07:14:45;;;;;;;23.95;15.85;;;;;;;;;;5018193;28;20033;-67
2022/04/28 07:17:11;;;;;;;27.52;15.70;;;14.40;64.70;;;;;;5020507;28;20051;-67
2022/04/28 07:19:37;;;;;;;29.23;15.43;;;14.50;67.90;;;;;;5023475;28;20025;-67
2022/04/28 07:22:05;;;;;;;24.13;15.40;;;14.40;64.40;;;;;;5021175;28;20504;-68
2022/04/28 07:24:33;;;;;;;23.52;15.50;;;14.50;63.70;;;;;;5017138;28;20025;-67
2022/04/28 07:26:59;;;;;;;26.27;16.15;;;;;;;;;;5056079;28;20465;-67
2022/04/28 07:29:25;;;;;;;22.98;15.38;;;;;;;;;;5030316;28;20017;-67
2022/04/28 07:31:52;;;;;;;24.15;15.55;;;;;;;;;;5027375;28;20087;-66
2022/04/28 07:34:18;;;;;;;25.73;15.93;;;;;;;;;;5023535;28;20038;-66
2022/04/28 07:36:44;;;;;;;29.25;16.45;;;;;;;;;;5013544;28;20029;-66
2022/04/28 07:39:10;;;;;;;24.52;15.88;;;;;;;;;;5027503;28;20029;-66
2022/04/28 07:41:36;;;;;;;29.98;16.45;;;;;;;;;;5020379;28;20606;-67
2022/04/28 07:44:02;;;;;;;24.85;16.50;;;;;;;;;;5019584;28;20026;-66
2022/04/28 07:46:28;;;;;;;24.95;15.68;;;;;;;;;;5026392;28;20041;-66
2022/04/28 07:48:54;;;;;;;25.13;15.20;;;;;;;;;;5010494;28;20458;-66
2022/04/28 07:51:20;;;;;;;26.50;15.80;;;15.50;75.00;;;;;;5012234;28;20040;-69
2022/04/28 07:53:46;;;;;;;23.70;15.45;;;;;;;;;;5013888;28;20054;-67
2022/04/28 07:56:17;;;;;;;25.92;15.82;;;14.60;63.80;;;;;;5014400;28;20109;-67
2022/04/28 07:58:43;;;;;;;25.80;15.80;;;14.70;63.70;;;;;;5016252;28;20598;-67
2022/04/28 08:01:09;;;;;;;26.33;15.35;;;;;;;;;;5043794;28;20034;-67
2022/04/28 08:03:35;;;;;;;24.27;15.43;;;;;;;;;;5010327;28;20040;-67
2022/04/28 08:06:02;;;;;;;25.10;15.13;;;;;;;;;;5013800;28;20026;-67
2022/04/28 08:08:28;;;;;;;23.45;15.55;;;14.80;62.80;;;;;;5020012;28;20511;-67
2022/04/28 08:10:54;;;;;;;23.60;15.23;;;;;;;;;;5025613;28;20084;-67
2022/04/28 08:13:20;;;;;;;23.73;15.80;;;15.60;84.00;;;;;;5013648;28;20148;-66
2022/04/28 08:15:46;;;;;;;25.15;15.88;;;14.90;62.20;;;;;;5011184;28;20098;-67
2022/04/28 08:18:12;;;;;;;25.67;16.00;;;;;;;;;;5014988;28;20038;-67
2022/04/28 08:20:41;;;;;;;26.13;14.93;;;14.90;64.30;;;;;;5012636;28;20030;-67
2022/04/28 08:23:08;;;;;;;24.85;15.65;;;14.90;82.80;;;;;;5013771;28;20041;-67
2022/04/28 08:25:34;;;;;;;24.98;15.15;;;;;;;;;;5013625;28;20577;-67
2022/04/28 08:28:00;;;;;;;25.48;15.15;;;;;;;;;;5009706;28;20042;-66
2022/04/28 08:30:26;;;;;;;26.15;14.95;;;;;;;;;;5015121;28;20530;-66
2022/04/28 08:32:52;;;;;;;25.67;16.00;;;;;;;;;;5013957;28;20042;-67
2022/04/28 08:35:18;;;;;;;22.83;14.63;;;15.00;82.80;;;;;;5013923;28;20033;-67
2022/04/28 08:37:44;;;;;;;23.80;14.70;;;;;;;;;;5013646;28;20044;-67
2022/04/28 08:40:11;;;;;;;24.92;16.25;;;15.20;61.50;;;;;;5039333;28;20079;-68
2022/04/28 08:42:37;;;;;;;25.90;14.93;;;;;;;;;;5009604;28;20042;-67
2022/04/28 08:45:05;;;;;;;27.50;15.63;;;15.40;60.90;;;;;;5014497;28;20061;-68
2022/04/28 08:47:31;;;;;;;21.77;14.65;;;15.50;60.60;;;;;;5013064;28;20532;-68
2022/04/28 08:49:58;;;;;;;23.20;14.98;;;;;;;;;;5013407;28;20025;-68
2022/04/28 08:52:25;;;;;;;25.40;14.57;;;15.60;59.60;;;;;;5013228;28;20741;-67
2022/04/28 08:54:54;;;;;;;26.45;14.95;;;15.80;59.40;;;;;;5011463;28;20026;-67
2022/04/28 08:57:24;;;;;;;23.05;14.57;;;15.90;59.10;;;;;;5042620;28;20033;-66
2022/04/28 08:59:51;;;;;;;27.95;15.20;;;;;;;;;;5013695;28;20065;-66
2022/04/28 09:02:24;;;;;;;23.23;15.10;;;16.50;57.40;;;;;;5013249;28;20061;-67
2022/04/28 09:04:50;;;;;;;21.92;14.48;;;;;;;;;;5013082;28;20029;-67
2022/04/28 09:07:16;;;;;;;22.13;12.65;;;;;;;;;;5010595;28;20026;-67
2022/04/28 09:09:42;;;;;;;24.15;15.32;;;17.80;53.10;;;;;;5042191;28;20037;-68
2022/04/28 09:12:08;;;;;;;20.77;15.00;;;18.50;52.20;;;;;;5026036;28;20061;-69
2022/04/28 09:14:34;;;;;;;20.85;15.35;;;19.00;50.30;;;;;;5016023;28;20105;-68
2022/04/28 09:17:02;;;;;;;21.95;15.00;;;19.40;48.90;;;;;;5011745;28;20113;-67
2022/04/28 09:19:34;;;;;;;22.02;15.20;;;19.50;48.90;;;;;;5021670;28;20564;-67
2022/04/28 09:22:05;;;;;;;23.08;15.95;;;19.40;48.80;;;;;;5011433;28;20061;-67
2022/04/28 09:24:31;;;;;;;21.15;14.90;;;19.30;48.20;;;;;;5025443;28;20033;-67
2022/04/28 09:26:57;;;;;;;22.40;15.85;;;19.10;48.30;;;;;;5012794;28;20091;-67
2022/04/28 09:29:27;;;;;;;22.58;15.73;;;19.00;49.10;;;;;;5017100;28;20114;-67
2022/04/28 09:31:53;;;;;;;21.00;15.82;;;18.90;49.00;;;;;;5013160;28;20032;-67
2022/04/28 09:34:22;;;;;;;36.42;15.55;;;18.80;49.00;;;;;;5013546;28;20108;-67
2022/04/28 09:36:49;;;;;;;24.60;16.35;;;18.70;49.30;;;;;;5019660;28;20045;-67
2022/04/28 09:44:51;;;;;;;23.85;14.65;;;18.50;50.50;;;;;;5012497;28;20041;-67
2022/04/28 09:47:21;;;;;;;23.17;14.18;;;18.50;50.30;;;;;;5012227;28;20636;-67
2022/04/28 09:49:55;;;;;;;29.53;14.83;;;18.40;50.20;;;;;;5012265;28;20025;-67
2022/04/28 09:52:32;;;;;;;20.80;14.88;;;18.50;50.50;;;;;;5022190;28;20528;-67
2022/04/28 09:55:00;;;;;;;21.95;14.52;;;18.70;50.40;;;;;;5008559;28;20097;-67
2022/04/28 09:57:26;;;;;;;21.60;14.98;;;19.00;50.60;;;;;;5013700;28;20125;-67
2022/04/28 09:59:54;;;;;;;19.70;14.45;;;19.40;49.70;;;;;;5011943;28;20104;-67
2022/04/28 10:02:22;;;;;;;22.90;14.50;;;19.60;49.40;;;;;;5011896;28;20026;-67
2022/04/28 10:04:49;;;;;;;20.60;14.38;;;19.70;48.40;;;;;;5011714;28;20370;-67
2022/04/28 10:07:16;;;;;;;20.67;14.40;;;19.80;47.60;;;;;;5012280;28;20477;-67
2022/04/28 10:09:50;;;;;;;20.73;14.10;;;19.80;47.50;;;;;;5026749;28;20029;-68
2022/04/28 10:12:25;;;;;;;21.27;14.30;;;19.90;48.00;;;;;;5026579;28;20029;-67
2022/04/28 10:14:54;;;;;;;22.05;14.25;;;20.00;47.80;;;;;;5027917;28;20095;-67
2022/04/28 10:17:23;;;;;;;22.05;14.38;;;20.10;47.40;;;;;;5015785;28;20084;-67
2022/04/28 10:19:57;;;;;;;21.55;14.95;;;20.10;46.50;;;;;;5020233;28;20061;-68
2022/04/28 10:22:31;;;;;;;23.23;13.60;;;20.20;46.20;;;;;;5030772;28;20025;-67
2022/04/28 10:33:15;;;;;;;20.85;12.95;;;20.30;46.30;;;;;;5020524;28;20604;-67
2022/04/28 10:35:54;;;;;;;18.73;13.73;;;20.30;46.10;;;;;;5014778;28;20387;-68
2022/04/28 10:38:30;;;;;;;16.55;12.98;;;20.40;46.20;;;;;;5026034;28;20041;-68
2022/04/28 10:40:59;;;;;;;15.90;11.70;;;20.50;46.00;;;;;;5024267;28;20386;-69
2022/04/28 10:43:34;;;;;;;19.25;11.55;;;20.70;45.90;;;;;;5024574;28;20061;-69
2022/04/28 10:46:09;;;;;;;17.42;12.25;;;20.70;45.30;;;;;;5024899;28;20068;-69
2022/04/28 10:48:38;;;;;;;18.13;11.93;;;20.80;44.90;;;;;;5016279;28;20029;-68
2022/04/28 10:51:18;;;;;;;17.42;12.30;;;20.80;44.80;;;;;;5014065;28;20101;-68
2022/04/28 10:54:05;;;;;;;19.73;13.35;;;20.90;45.00;;;;;;5014940;28;20046;-68
2022/04/28 10:56:40;;;;;;;18.48;12.55;;;20.90;44.70;;;;;;5015602;28;20145;-69
2022/04/28 11:01:53;;;;;;;18.02;11.52;;;20.90;44.40;;;;;;5015249;28;20033;-68
2022/04/28 11:04:24;;;;;;;16.88;11.75;;;20.90;44.10;;;;;;5013192;28;20022;-68
2022/04/28 11:06:57;;;;;;;;;;;21.00;44.80;;;;;;5014967;28;20092;-68
2022/04/28 11:09:37;;;;;;;15.45;11.05;;;21.00;44.60;;;;;;5034014;28;20292;-69
2022/04/28 11:12:11;;;;;;;16.52;10.55;;;21.00;43.90;;;;;;5026492;28;20454;-68
2022/04/28 11:14:48;;;;;;;14.57;10.95;;;21.00;42.70;;;;;;5015070;28;20064;-68
2022/04/28 11:17:17;;;;;;;16.00;11.20;;;21.00;42.90;;;;;;5014817;28;20041;-68
2022/04/28 11:19:46;;;;;;;16.25;11.00;;;21.00;43.10;;;;;;5015813;28;20493;-69
2022/04/28 11:22:11;;;;;;;17.30;10.60;;;21.00;43.80;;;;;;5024196;28;20034;-68
2022/04/28 11:24:45;;;;;;;16.77;11.23;;;21.00;43.10;;;;;;5030679;28;20033;-68
2022/04/28 11:27:21;;;;;;;15.65;10.90;;;21.10;43.70;;;;;;5015903;28;20025;-68
2022/04/28 11:29:50;;;;;;;16.98;10.82;;;21.10;43.90;;;;;;5014950;28;20061;-68
2022/04/28 11:32:16;;;;;;;17.83;10.80;;;21.10;42.80;;;;;;5020713;28;20068;-69
2022/04/28 11:34:44;;;;;;;18.50;11.23;;;21.00;42.90;;;;;;5025141;28;20038;-68
2022/04/28 11:37:24;;;;;;;13.93;10.75;;;21.00;43.60;;;;;;5014385;28;20021;-68
2022/04/28 11:39:58;;;;;;;18.13;10.63;;;21.00;43.20;;;;;;5027807;28;20086;-69
2022/04/28 11:42:26;;;;;;;15.18;10.40;;;21.10;42.70;;;;;;5016106;28;20037;-68
2022/04/28 11:45:00;;;;;;;18.30;10.35;;;21.30;42.00;;;;;;5016894;28;20544;-69
2022/04/28 11:47:27;;;;;;;17.13;10.35;;;21.50;41.60;;;;;;5013878;28;20034;-69
2022/04/28 11:49:58;;;;;;;13.68;10.02;;;21.50;41.80;;;;;;5014282;28;20052;-70
2022/04/28 11:52:34;;;;;;;;;;;21.50;42.30;;;;;;5012097;28;20041;-68
2022/04/28 11:55:03;;;;;;;19.83;10.05;;;21.50;42.60;;;;;;5013794;28;20335;-68
2022/04/28 11:57:30;;;;;;;14.13;10.15;;;21.50;42.40;;;;;;5027021;28;20017;-69
2022/04/28 11:59:58;;;;;;;14.77;10.52;;;21.40;42.50;;;;;;5014943;28;20029;-68
2022/04/28 12:02:38;;;;;;;16.40;10.73;;;21.60;41.80;;;;;;5013399;28;20033;-68
2022/04/28 12:05:15;;;;;;;14.27;9.57;;;22.10;40.70;;;;;;5019749;28;20157;-68
2022/04/28 12:07:51;;;;;;;12.98;9.93;;;22.30;39.20;;;;;;5014756;28;20123;-68
2022/04/28 12:16:22;;;;;;;12.02;9.10;;;22.40;39.20;;;;;;5014131;28;20064;-70
2022/04/28 12:21:37;;;;;;;11.82;9.30;;;23.10;37.80;;;;;;5026940;28;20464;-69
2022/04/28 12:24:11;;;;;;;11.13;8.98;;;23.40;37.20;;;;;;5013632;28;20116;-68
2022/04/28 12:26:41;;;;;;;12.82;9.32;;;23.50;37.20;;;;;;5013269;28;20050;-68
2022/04/28 12:29:12;;;;;;;15.48;8.70;;;23.50;36.40;;;;;;5013564;28;20037;-68
2022/04/28 12:31:39;;;;;;;13.18;8.68;;;23.80;35.50;;;;;;5013481;28;20079;-69
2022/04/28 12:34:12;;;;;;;17.10;11.15;;;24.30;34.60;;;;;;5012949;28;20432;-68
2022/04/28 12:36:49;;;;;;;11.32;8.35;;;25.10;33.80;;;;;;5010503;28;20033;-68
2022/04/28 12:39:18;;;;;;;15.77;7.57;;;26.00;31.50;;;;;;5030467;28;20041;-69
2022/04/28 12:41:45;;;;;;;11.45;7.75;;;26.80;30.80;;;;;;5016052;28;20033;-68
2022/04/28 12:44:11;;;;;;;11.32;7.43;;;27.40;30.00;;;;;;5013699;28;20049;-68
2022/04/28 12:46:39;;;;;;;11.52;7.55;;;27.70;29.40;;;;;;5013021;28;20167;-68
2022/04/28 12:49:09;;;;;;;10.82;7.75;;;27.70;28.80;;;;;;5012994;28;20036;-68
2022/04/28 12:51:52;;;;;;;15.43;8.10;;;27.20;29.10;;;;;;5009727;28;20061;-69
2022/04/28 12:54:25;;;;;;;11.60;7.90;;;26.70;29.90;;;;;;5014760;28;20034;-68
2022/04/28 12:56:59;;;;;;;13.27;7.70;;;26.40;30.40;;;;;;5013018;28;20496;-68
2022/04/28 12:59:30;;;;;;;12.82;8.35;;;26.70;29.90;;;;;;5015030;28;20041;-68
2022/04/28 13:01:56;;;;;;;12.10;8.27;;;27.20;29.30;;;;;;5022391;28;20598;-68
2022/04/28 13:04:24;;;;;;;11.55;8.20;;;27.40;29.00;;;;;;5022732;28;20065;-68
2022/04/28 13:06:50;;;;;;;10.93;8.05;;;27.50;29.20;;;;;;5027052;28;20021;-68
2022/04/28 13:09:17;;;;;;;10.48;7.75;;;27.50;29.50;;;;;;5029116;28;20038;-68
2022/04/28 13:11:45;;;;;;;10.98;7.85;;;27.70;28.90;;;;;;5016164;28;20026;-68
2022/04/28 13:14:14;;;;;;;11.05;8.23;;;27.50;29.00;;;;;;5012809;28;20022;-68
2022/04/28 13:16:40;;;;;;;12.13;7.30;;;27.40;29.40;;;;;;5017723;28;20037;-68
2022/04/28 13:19:08;;;;;;;10.50;7.63;;;27.40;29.20;;;;;;5014750;28;20112;-68
2022/04/28 13:21:34;;;;;;;9.80;7.40;;;27.20;29.10;;;;;;5012917;28;20113;-68
2022/04/28 13:24:00;;;;;;;13.45;7.68;;;26.90;29.00;;;;;;5012344;28;20389;-69
2022/04/28 13:26:28;;;;;;;11.48;8.15;;;27.00;29.00;;;;;;5018820;28;20535;-68
2022/04/28 13:28:55;;;;;;;14.15;7.93;;;27.50;28.90;;;;;;5020717;28;20033;-69
2022/04/28 13:31:21;;;;;;;10.80;7.30;;;27.80;28.90;;;;;;5012160;28;20029;-68
2022/04/28 13:33:49;;;;;;;9.07;6.72;;;28.00;28.90;;;;;;5008726;28;20026;-68
2022/04/28 13:36:16;;;;;;;9.20;6.90;;;28.20;28.80;;;;;;5013951;28;20032;-68
2022/04/28 13:38:42;;;;;;;9.68;7.07;;;28.90;27.80;;;;;;5016316;28;20034;-68
2022/04/28 13:41:09;;;;;;;14.32;7.50;;;29.30;25.70;;;;;;5014820;28;20065;-68
2022/04/28 13:43:36;;;;;;;11.43;7.68;;;29.20;26.50;;;;;;5013103;28;20044;-68
2022/04/28 13:46:08;;;;;;;10.73;7.13;;;29.00;27.40;;;;;;5009419;28;20080;-68
2022/04/28 13:48:35;;;;;;;9.50;7.20;;;28.70;28.20;;;;;;5024805;28;20447;-68
2022/04/28 13:51:03;;;;;;;10.82;7.38;;;28.50;27.90;;;;;;5013628;28;20018;-68
2022/04/28 13:53:29;;;;;;;10.90;7.80;;;28.60;27.60;;;;;;5019251;28;20049;-68
2022/04/28 13:56:00;;;;;;;12.27;7.55;;;28.60;28.10;;;;;;5020813;28;20041;-67
2022/04/28 13:58:28;;;;;;;12.32;7.30;;;29.10;27.20;;;;;;5011707;28;20045;-68
2022/04/28 14:00:54;;;;;;;8.20;6.85;;;29.10;27.20;;;;;;5009242;28;20087;-68
2022/04/28 14:03:21;;;;;;;9.10;6.65;;;28.60;28.20;;;;;;5013726;28;20503;-68
2022/04/28 14:05:48;;;;;;;12.00;7.32;;;28.30;28.30;;;;;;5011724;28;20037;-69
2022/04/28 14:08:14;;;;;;;9.63;7.75;;;28.20;28.10;;;;;;5018578;28;20030;-68
2022/04/28 14:10:41;;;;;;;11.10;7.22;;;28.00;28.70;;;;;;5014618;28;20025;-68
2022/04/28 14:13:07;;;;;;;10.48;7.20;;;27.80;29.30;;;;;;5024472;28;20488;-67
2022/04/28 14:15:33;;;;;;;10.10;7.05;;;27.50;29.50;;;;;;5014719;28;20030;-68
2022/04/28 14:17:59;;;;;;;10.02;6.88;;;27.30;29.50;;;;;;5017938;28;20459;-69
2022/04/28 14:20:24;;;;;;;10.63;7.18;;;27.20;30.00;;;;;;5017523;28;20022;-69
2022/04/28 14:22:50;;;;;;;11.82;6.90;;;27.00;29.40;;;;;;5024762;28;20056;-69
2022/04/28 14:25:16;;;;;;;10.90;6.57;;;26.90;29.40;;;;;;5015463;28;20025;-69
2022/04/28 14:27:42;;;;;;;10.30;6.68;;;26.80;29.70;;;;;;5012540;28;20065;-68
2022/04/28 14:30:08;;;;;;;11.15;6.60;;;26.70;29.80;;;;;;5022021;28;20549;-69
2022/04/28 14:32:36;;;;;;;10.35;7.22;;;26.60;29.80;;;;;;5019729;28;20121;-68
2022/04/28 14:35:02;;;;;;;11.32;7.20;;;26.30;29.90;;;;;;5015140;28;20405;-68
2022/04/28 14:37:29;;;;;;;11.27;7.32;;;26.10;30.20;;;;;;5015197;28;20111;-69
2022/04/28 14:39:55;;;;;;;10.35;6.68;;;25.90;30.90;;;;;;5015049;28;20030;-69
2022/04/28 14:42:22;;;;;;;10.38;7.10;;;25.60;31.20;;;;;;5017054;28;20196;-68
2022/04/28 14:44:48;;;;;;;12.10;6.72;;;25.10;30.00;;;;;;5014927;28;20037;-69
2022/04/28 14:47:14;;;;;;;12.27;7.25;;;24.60;31.00;;;;;;5015644;28;20563;-68
2022/04/28 14:52:25;;;;;;;10.73;6.80;;;24.10;34.20;;;;;;5015011;28;20101;-68
2022/04/28 14:54:55;;;;;;;12.00;7.78;;;24.00;34.70;;;;;;5012825;28;20025;-69
2022/04/28 14:57:32;;;;;;;13.18;7.82;;;23.90;34.70;;;;;;5013636;28;20030;-69
2022/04/28 14:59:58;;;;;;;11.95;8.20;;;23.90;35.10;;;;;;5028494;28;20033;-68
2022/04/28 15:02:27;;;;;;;13.15;8.52;;;23.80;35.90;;;;;;5022308;28;20033;-69
2022/04/28 15:04:54;;;;;;;11.20;8.00;;;23.70;35.70;;;;;;5014938;28;20030;-68
2022/04/28 15:07:20;;;;;;;11.05;7.57;;;23.60;35.70;;;;;;5019288;28;20029;-70
2022/04/28 15:09:47;;;;;;;10.57;7.70;;;23.50;35.90;;;;;;5017071;28;20037;-69
2022/04/28 15:12:13;;;;;;;11.30;8.13;;;23.40;36.10;;;;;;5030817;28;20025;-69
2022/04/28 15:14:39;;;;;;;10.25;7.70;;;23.30;36.40;;;;;;5017242;28;20030;-69
2022/04/28 15:17:09;;;;;;;16.40;7.45;;;23.20;36.60;;;;;;5014431;28;20432;-69
2022/04/28 15:19:35;;;;;;;12.98;7.80;;;23.20;37.20;;;;;;5015180;28;20029;-69
2022/04/28 15:22:03;;;;;;;11.20;8.10;;;23.10;37.40;;;;;;5011769;28;20025;-68
2022/04/28 15:24:29;;;;;;;11.77;7.93;;;23.00;37.80;;;;;;5027259;28;20041;-69
2022/04/28 15:26:55;;;;;;;11.82;8.38;;;22.90;37.80;;;;;;5014696;28;20539;-69
2022/04/28 15:29:21;;;;;;;11.95;7.65;;;22.90;37.90;;;;;;5015957;28;20088;-68
2022/04/28 15:31:47;;;;;;;11.10;7.60;;;22.90;38.50;;;;;;5015201;28;20021;-68
2022/04/28 15:34:14;;;;;;;13.88;7.32;;;22.80;39.00;;;;;;5022745;28;20029;-69
2022/04/28 15:36:41;;;;;;;12.07;7.97;;;22.80;38.80;;;;;;5011890;28;20393;-69
2022/04/28 15:39:07;;;;;;;10.85;7.60;;;22.90;39.00;;;;;;5014177;28;20030;-69
2022/04/28 15:41:35;;;;;;;11.45;7.47;;;22.90;38.70;;;;;;5016879;28;20036;-69
2022/04/28 15:44:03;;;;;;;12.45;8.50;;;22.80;39.30;;;;;;5013908;28;20112;-69
2022/04/28 15:46:30;;;;;;;13.02;7.75;;;22.80;38.70;;;;;;5014149;28;20489;-69
2022/04/28 15:48:57;;;;;;;15.80;8.27;;;22.80;39.00;;;;;;5013231;28;20044;-70
2022/04/28 15:51:23;;;;;;;12.38;8.30;;;22.80;38.90;;;;;;5012071;28;20493;-70
2022/04/28 15:53:49;;;;;;;13.60;8.32;;;22.90;39.10;;;;;;5013784;28;20536;-69
2022/04/28 15:56:15;;;;;;;15.70;8.27;;;22.90;39.10;;;;;;5016641;28;20161;-68
2022/04/28 15:58:41;;;;;;;12.38;8.10;;;23.00;38.90;;;;;;5021159;28;20069;-69
2022/04/28 16:01:09;;;;;;;12.80;8.25;;;23.00;39.00;;;;;;5023833;28;20038;-69
2022/04/28 16:03:35;;;;;;;15.43;8.80;;;23.10;39.20;;;;;;5013712;28;20038;-69
2022/04/28 16:06:01;;;;;;;14.68;8.63;;;23.20;39.70;;;;;;5014221;28;20484;-69
2022/04/28 16:08:27;;;;;;;11.63;7.65;;;23.20;39.60;;;;;;5021118;28;20048;-69
2022/04/28 16:10:53;;;;;;;14.25;8.20;;;23.20;39.90;;;;;;5023901;28;20535;-69
2022/04/28 16:13:20;;;;;;;12.82;9.07;;;23.20;39.90;;;;;;5011522;28;20040;-68
2022/04/28 16:15:45;;;;;;;12.70;8.88;;;23.20;39.30;;;;;;5012466;28;20033;-70
2022/04/28 16:18:11;;;;;;;17.17;8.77;;;23.10;39.20;;;;;;5014549;28;20029;-69
2022/04/28 16:20:37;;;;;;;12.07;8.60;;;23.00;39.10;;;;;;5012767;28;20038;-69
2022/04/28 16:23:04;;;;;;;17.25;8.80;;;22.90;39.20;;;;;;5014385;28;20026;-69
2022/04/28 16:25:30;;;;;;;18.10;9.25;;;22.80;39.30;;;;;;5015297;28;20034;-68
2022/04/28 16:27:57;;;;;;;13.93;8.70;;;22.70;39.70;;;;;;5014166;28;20049;-69
2022/04/28 16:30:23;;;;;;;11.05;8.75;;;22.60;40.20;;;;;;5029708;28;20112;-69
2022/04/28 16:32:49;;;;;;;13.65;8.50;;;22.50;40.60;;;;;;5016557;28;20469;-69
2022/04/28 16:35:15;;;;;;;13.93;8.63;;;22.40;39.60;;;;;;5018778;28;20072;-69
2022/04/28 16:37:41;;;;;;;12.38;8.88;;;22.30;40.10;;;;;;5013210;28;20068;-68
2022/04/28 16:40:09;;;;;;;14.32;9.55;;;22.20;40.60;;;;;;5018891;28;20033;-68
2022/04/28 16:42:35;;;;;;;16.45;11.82;;;22.10;40.60;;;;;;5027722;28;20041;-68
2022/04/28 16:45:01;;;;;;;18.60;12.68;;;22.00;40.90;;;;;;5046647;28;20038;-69
2022/04/28 16:47:27;;;;;;;18.60;11.27;;;22.00;41.50;;;;;;5020078;28;20026;-69
2022/04/28 16:49:53;;;;;;;18.83;11.40;;;21.90;41.60;;;;;;5012868;28;20109;-68
2022/04/28 16:52:19;;;;;;;17.33;11.98;;;21.90;42.20;;;;;;5027752;28;20034;-69
2022/04/28 16:54:45;;;;;;;16.73;10.30;;;21.80;42.20;;;;;;5011231;28;20088;-68
2022/04/28 16:57:12;;;;;;;13.15;10.45;;;21.80;42.00;;;;;;5016108;28;20540;-71
2022/04/28 16:59:39;;;;;;;15.20;9.63;;;21.80;42.10;;;;;;5024965;28;20249;-69
2022/04/28 17:02:06;;;;;;;13.88;9.85;;;21.70;42.00;;;;;;5016054;28;20029;-70
2022/04/28 17:04:34;;;;;;;14.93;10.10;;;21.70;42.50;;;;;;5022074;28;20035;-69
2022/04/28 17:07:02;;;;;;;14.40;10.52;;;21.60;43.00;;;;;;5019956;28;20026;-70
2022/04/28 17:09:28;;;;;;;14.93;10.80;;;21.50;43.00;;;;;;5023833;28;20493;-69
2022/04/28 17:11:59;;;;;;;16.33;10.63;;;21.40;43.30;;;;;;5028649;28;20026;-70
2022/04/28 17:14:26;;;;;;;13.52;10.93;;;21.30;43.70;;;;;;5027360;28;20103;-69
2022/04/28 17:16:52;;;;;;;15.88;10.55;;;21.20;44.10;;;;;;5029421;28;20060;-69
2022/04/28 17:19:20;;;;;;;23.60;11.23;;;21.20;44.30;;;;;;5016535;28;20036;-68
2022/04/28 17:21:47;;;;;;;23.35;11.63;;;21.10;44.70;;;;;;5031801;28;20492;-68
2022/04/28 17:24:18;;;;;;;18.38;10.93;;;21.00;44.70;;;;;;5023825;28;20069;-68
2022/04/28 17:26:48;;;;;;;25.05;11.98;;;20.90;45.20;;;;;;5015325;28;20045;-69
2022/04/28 17:29:16;;;;;;;17.13;10.43;;;21.20;45.70;;;;;;5012698;28;20026;-68
2022/04/28 17:31:43;;;;;;;15.00;10.77;;;20.80;45.50;;;;;;5016049;28;20033;-69
2022/04/28 17:34:09;;;;;;;25.73;11.43;;;20.80;45.70;;;;;;5011117;28;20469;-68
2022/04/28 17:36:35;;;;;;;13.88;11.45;;;20.70;46.20;;;;;;5008838;28;20062;-68
2022/04/28 17:39:02;;;;;;;22.45;12.07;;;20.70;46.10;;;;;;5026259;28;20025;-68
2022/04/28 17:41:28;;;;;;;20.90;11.40;;;20.60;46.20;;;;;;5030334;28;20690;-69
2022/04/28 17:43:54;;;;;;;59.17;15.80;;;20.60;46.60;;;;;;5022451;28;20120;-68
2022/04/28 17:46:20;;;;;;;14.60;11.70;;;20.60;46.80;;;;;;5026759;28;20105;-68
2022/04/28 17:48:47;;;;;;;19.42;11.90;;;20.60;47.10;;;;;;5053024;28;20039;-69
2022/04/28 17:51:15;;;;;;;15.65;11.20;;;20.60;47.50;;;;;;5026441;28;20029;-68
2022/04/28 17:53:42;;;;;;;16.88;11.65;;;20.60;47.40;;;;;;5014889;28;20433;-69
2022/04/28 18:01:49;;;;;;;19.13;11.88;;;20.60;48.30;;;;;;4996978;28;20040;-69
2022/04/28 18:04:15;;;;;;;17.50;12.35;;;20.60;48.50;;;;;;5000794;28;20034;-69
2022/04/28 18:06:41;;;;;;;15.43;11.43;;;20.60;48.60;;;;;;4997045;28;20096;-69
2022/04/28 18:09:07;;;;;;;17.80;11.27;;;20.60;48.70;;;;;;4988897;28;20042;-69
2022/04/28 18:11:32;;;;;;;18.48;11.75;;;20.60;48.80;;;;;;4997102;28;20034;-70
2022/04/28 18:13:58;;;;;;;17.52;12.38;;;20.60;48.80;;;;;;4997092;28;20113;-69
2022/04/28 18:16:27;;;;;;;19.85;12.52;;;20.60;48.90;;;;;;4990074;28;20453;-68
2022/04/28 18:18:54;;;;;;;18.33;12.00;;;20.60;48.80;;;;;;5003198;28;20128;-69
2022/04/28 18:21:20;;;;;;;17.88;12.50;;;20.50;48.90;;;;;;5001481;28;20046;-68
2022/04/28 18:23:46;;;;;;;16.42;12.13;;;20.50;49.00;;;;;;4994321;28;20108;-68
2022/04/28 18:26:15;;;;;;;18.50;12.50;;;20.50;49.20;;;;;;4990209;28;20518;-67
2022/04/28 18:28:42;;;;;;;18.40;12.23;;;20.50;49.40;;;;;;4996855;28;20041;-68
2022/04/28 18:31:09;;;;;;;17.27;12.38;;;20.40;49.30;;;;;;5000932;28;20036;-68
2022/04/28 18:33:35;;;;;;;19.02;12.90;;;20.30;49.30;;;;;;4991159;28;20520;-68
2022/04/28 18:44:28;;;;;;;17.85;13.25;;;20.10;50.10;;;;;;5012064;28;20092;-69
2022/04/28 18:47:05;;;;;;;21.58;13.40;;;20.10;50.30;;;;;;5019244;28;20022;-69
2022/04/28 18:49:33;;;;;;;18.75;12.98;;;20.10;50.50;;;;;;5011532;28;20030;-68
2022/04/28 18:52:00;;;;;;;18.92;13.35;;;20.00;50.60;;;;;;5010576;28;20048;-68
2022/04/28 18:54:28;;;;;;;17.13;12.88;;;20.00;50.70;;;;;;5009064;28;20033;-68
2022/04/28 18:57:00;;;;;;;19.70;13.18;;;19.90;51.00;;;;;;5011057;28;20022;-68
2022/04/28 18:59:30;;;;;;;20.20;13.23;;;19.90;51.00;;;;;;5011548;28;20068;-68
2022/04/28 19:01:56;;;;;;;;;;;19.80;51.20;;;;;;5015088;28;20033;-68
2022/04/28 19:04:24;;;;;;;20.80;13.23;;;19.80;51.30;;;;;;5027446;28;19918;-69
2022/04/28 19:06:52;;;;;;;16.40;13.05;;;19.70;51.50;;;;;;5029827;28;20056;-68
2022/04/28 19:09:18;;;;;;;16.60;12.73;;;19.70;51.80;;;;;;5038829;28;20523;-69
2022/04/28 19:11:44;;;;;;;19.13;12.95;;;19.60;52.00;;;;;;5024517;28;20029;-69
2022/04/28 19:16:54;;;;;;;22.73;13.13;;;19.60;52.30;;;;;;5027106;28;20464;-69
2022/04/28 19:19:21;;;;;;;17.88;12.27;;;19.60;52.50;;;;;;5026777;28;20116;-71
2022/04/28 19:21:47;;;;;;;18.90;12.45;;;19.60;52.70;;;;;;5026601;28;20373;-69